createdAt,value
2022-11-23T00:00:35.784Z,101576.13
2022-11-23T00:03:03.880Z,101577.00
2022-11-23T00:05:33.077Z,101583.00
2022-11-23T00:08:01.225Z,101581.31
2022-11-23T00:10:29.210Z,101583.91
2022-11-23T00:12:57.055Z,101583.03
2022-11-23T00:15:24.860Z,101587.31
2022-11-23T00:17:52.693Z,101578.84
2022-11-23T00:20:20.794Z,101590.88
2022-11-23T00:22:50.006Z,101585.75
2022-11-23T00:25:18.018Z,101587.56
2022-11-23T00:27:45.877Z,101590.13
2022-11-23T00:30:14.585Z,101591.03
2022-11-23T00:32:42.401Z,101597.13
2022-11-23T00:35:10.605Z,101593.69
2022-11-23T00:37:38.441Z,101593.78
2022-11-23T00:40:09.191Z,101591.25
2022-11-23T00:42:38.343Z,101586.03
2022-11-23T00:45:07.270Z,101592.09
2022-11-23T00:47:35.193Z,101587.84
2022-11-23T00:50:03.040Z,101593.78
2022-11-23T00:52:30.839Z,101587.81
2022-11-23T00:54:58.865Z,101587.78
2022-11-23T00:57:28.102Z,101580.81
2022-11-23T00:59:55.978Z,101591.13
2022-11-23T01:02:23.858Z,101591.13
2022-11-23T01:04:51.686Z,101595.47
2022-11-23T01:07:19.569Z,101591.22
2022-11-23T01:09:47.475Z,101587.78
2022-11-23T01:12:15.316Z,101585.16
2022-11-23T01:14:44.556Z,101580.81
2022-11-23T01:17:13.209Z,101580.88
2022-11-23T01:19:41.067Z,101585.16
2022-11-23T01:22:09.077Z,101584.28
2022-11-23T01:24:37.047Z,101573.97
2022-11-23T01:27:05.060Z,101578.22
2022-11-23T01:29:33.190Z,101575.69
2022-11-23T01:32:02.776Z,101580.81
2022-11-23T01:34:30.602Z,101576.59
2022-11-23T01:36:58.431Z,101576.63
2022-11-23T01:39:26.500Z,101575.72
2022-11-23T01:41:54.345Z,101578.34
2022-11-23T01:44:28.369Z,101576.63
2022-11-23T01:46:57.838Z,101584.31
2022-11-23T01:49:29.192Z,101574.06
2022-11-23T01:52:00.885Z,101580.97
2022-11-23T01:54:33.661Z,101577.59
2022-11-23T01:57:07.662Z,101574.19
2022-11-23T01:59:36.531Z,101587.13
2022-11-23T02:02:05.110Z,101579.38
2022-11-23T02:04:38.626Z,101586.28
2022-11-23T02:07:07.643Z,101589.78
2022-11-23T02:09:37.683Z,101575.19
2022-11-23T02:12:11.606Z,101581.38
2022-11-23T02:14:39.608Z,101584.09
2022-11-23T02:17:07.557Z,101580.72
2022-11-23T02:19:48.532Z,101576.53
2022-11-23T02:22:25.551Z,101574.88
2022-11-23T02:24:55.251Z,101575.00
2022-11-23T02:27:25.217Z,101577.50
2022-11-23T02:29:54.116Z,101576.63
2022-11-23T02:32:25.031Z,101576.63
2022-11-23T02:34:52.917Z,101567.97
2022-11-23T02:37:20.761Z,101567.09
2022-11-23T02:39:51.047Z,101568.84
2022-11-23T02:42:19.259Z,101562.88
2022-11-23T02:44:59.861Z,101557.78
2022-11-23T02:47:27.800Z,101552.69
2022-11-23T02:49:55.667Z,101558.78
2022-11-23T02:52:23.561Z,101558.81
2022-11-23T02:54:51.409Z,101562.28
2022-11-23T02:57:21.634Z,101563.22
2022-11-23T02:59:50.817Z,101562.44
2022-11-23T03:02:18.617Z,101563.19
2022-11-23T03:04:46.422Z,101567.41
2022-11-23T03:07:14.326Z,101564.75
2022-11-23T03:09:42.178Z,101567.34
2022-11-23T03:12:10.153Z,101561.34
2022-11-23T03:14:38.992Z,101564.69
2022-11-23T03:17:08.169Z,101559.53
2022-11-23T03:19:36.001Z,101554.34
2022-11-23T03:22:04.655Z,101566.38
2022-11-23T03:24:32.830Z,101565.41
2022-11-23T03:27:00.853Z,101561.00
2022-11-23T03:29:28.843Z,101551.50
2022-11-23T03:31:57.098Z,101551.44
2022-11-23T03:34:26.371Z,101546.22
2022-11-23T03:36:54.192Z,101550.53
2022-11-23T03:39:22.208Z,101553.88
2022-11-23T03:41:50.255Z,101556.47
2022-11-23T03:44:18.095Z,101568.50
2022-11-23T03:46:46.150Z,101561.59
2022-11-23T03:49:14.082Z,101561.59
2022-11-23T03:51:43.384Z,101567.53
2022-11-23T03:54:11.190Z,101566.66
2022-11-23T03:56:39.213Z,101563.19
2022-11-23T03:59:07.103Z,101558.00
2022-11-23T04:01:35.085Z,101552.00
2022-11-23T04:04:02.911Z,101558.84
2022-11-23T04:06:30.721Z,101545.06
2022-11-23T04:09:02.314Z,101549.34
2022-11-23T04:11:30.495Z,101546.72
2022-11-23T04:13:58.365Z,101542.34
2022-11-23T04:16:26.197Z,101546.56
2022-11-23T04:18:54.007Z,101542.25
2022-11-23T04:21:21.854Z,101543.97
2022-11-23T04:23:49.668Z,101541.31
2022-11-23T04:26:18.936Z,101538.75
2022-11-23T04:28:46.762Z,101540.44
2022-11-23T04:31:14.663Z,101541.31
2022-11-23T04:33:42.820Z,101540.44
2022-11-23T04:36:10.890Z,101531.00
2022-11-23T04:38:38.757Z,101532.72
2022-11-23T04:41:06.712Z,101529.38
2022-11-23T04:43:35.928Z,101520.78
2022-11-23T04:46:03.717Z,101518.22
2022-11-23T04:48:32.004Z,101520.84
2022-11-23T04:50:59.978Z,101519.94
2022-11-23T04:53:27.817Z,101515.72
2022-11-23T04:55:55.663Z,101514.81
2022-11-23T04:58:23.489Z,101514.81
2022-11-23T05:00:52.724Z,101522.53
2022-11-23T05:03:20.676Z,101526.00
2022-11-23T05:05:48.485Z,101526.94
2022-11-23T05:08:16.317Z,101531.19
2022-11-23T05:10:44.868Z,101538.94
2022-11-23T05:13:12.661Z,101538.03
2022-11-23T05:15:40.594Z,101540.59
2022-11-23T05:18:10.596Z,101531.13
2022-11-23T05:20:38.785Z,101533.78
2022-11-23T05:23:06.774Z,101528.66
2022-11-23T05:25:34.597Z,101536.34
2022-11-23T05:28:16.660Z,101537.25
2022-11-23T05:30:50.401Z,101531.28
2022-11-23T05:33:19.722Z,101530.38
2022-11-23T05:35:47.545Z,101524.38
2022-11-23T05:38:15.544Z,101528.69
2022-11-23T05:40:43.362Z,101534.75
2022-11-23T05:43:11.179Z,101529.66
2022-11-23T05:45:39.025Z,101529.69
2022-11-23T05:48:07.189Z,101527.97
2022-11-23T05:50:36.477Z,101533.09
2022-11-23T05:53:04.520Z,101529.72
2022-11-23T05:55:32.869Z,101535.66
2022-11-23T05:58:00.706Z,101533.09
2022-11-23T06:00:28.532Z,101530.59
2022-11-23T06:03:01.796Z,101538.34
2022-11-23T06:05:30.043Z,101538.31
2022-11-23T06:07:59.293Z,101546.06
2022-11-23T06:10:27.458Z,101545.28
2022-11-23T06:12:55.274Z,101552.16
2022-11-23T06:15:26.240Z,101551.34
2022-11-23T06:17:54.057Z,101555.66
2022-11-23T06:20:21.845Z,101561.66
2022-11-23T06:22:53.200Z,101565.94
2022-11-23T06:25:23.006Z,101569.41
2022-11-23T06:27:57.577Z,101575.41
2022-11-23T06:30:25.956Z,101570.34
2022-11-23T06:32:53.925Z,101581.44
2022-11-23T06:35:21.910Z,101576.34
2022-11-23T06:37:50.211Z,101578.97
2022-11-23T06:40:18.731Z,101580.69
2022-11-23T06:42:48.476Z,101585.94
2022-11-23T06:45:16.522Z,101588.50
2022-11-23T06:47:44.959Z,101581.63
2022-11-23T06:50:14.681Z,101579.97
2022-11-23T06:52:42.627Z,101581.75
2022-11-23T06:55:10.689Z,101583.47
2022-11-23T06:57:38.502Z,101581.69
2022-11-23T07:00:09.514Z,101577.44
2022-11-23T07:02:37.324Z,101578.34
2022-11-23T07:05:05.546Z,101576.59
2022-11-23T07:07:33.590Z,101580.03
2022-11-23T07:10:06.640Z,101576.59
2022-11-23T07:12:34.972Z,101586.09
2022-11-23T07:15:02.793Z,101577.50
2022-11-23T07:17:32.046Z,101580.03
2022-11-23T07:19:59.921Z,101581.78
2022-11-23T07:22:27.747Z,101580.94
2022-11-23T07:24:55.570Z,101587.84
2022-11-23T07:27:23.589Z,101598.94
2022-11-23T07:29:51.506Z,101597.31
2022-11-23T07:32:19.345Z,101586.94
2022-11-23T07:34:48.716Z,101592.09
2022-11-23T07:37:16.518Z,101592.91
2022-11-23T07:40:00.304Z,101585.16
2022-11-23T07:42:34.888Z,101590.44
2022-11-23T07:45:04.459Z,101589.50
2022-11-23T07:47:32.585Z,101595.50
2022-11-23T07:50:01.872Z,101588.59
2022-11-23T07:52:29.757Z,101591.19
2022-11-23T07:54:57.560Z,101595.44
2022-11-23T07:57:25.493Z,101596.31
2022-11-23T07:59:53.405Z,101594.63
2022-11-23T08:02:21.765Z,101607.53
2022-11-23T08:04:49.626Z,101607.50
2022-11-23T08:07:18.828Z,101594.63
2022-11-23T08:09:46.966Z,101597.28
2022-11-23T08:12:14.778Z,101596.47
2022-11-23T08:14:42.633Z,101598.19
2022-11-23T08:17:10.556Z,101600.00
2022-11-23T08:19:38.425Z,101600.78
2022-11-23T08:22:06.232Z,101595.66
2022-11-23T08:24:35.722Z,101597.50
2022-11-23T08:27:03.587Z,101596.63
2022-11-23T08:29:31.629Z,101594.88
2022-11-23T08:31:59.483Z,101595.63
2022-11-23T08:34:27.467Z,101604.22
2022-11-23T08:36:55.281Z,101606.88
2022-11-23T08:39:23.095Z,101604.22
2022-11-23T08:41:52.326Z,101611.97
2022-11-23T08:44:20.123Z,101607.69
2022-11-23T08:46:47.961Z,101606.88
2022-11-23T08:49:15.897Z,101611.13
2022-11-23T08:51:49.679Z,101615.47
2022-11-23T08:54:17.962Z,101606.84
2022-11-23T08:56:45.790Z,101602.53
2022-11-23T08:59:15.103Z,101599.09
2022-11-23T09:01:43.073Z,101599.09
2022-11-23T09:04:12.332Z,101601.59
2022-11-23T09:06:42.096Z,101598.16
2022-11-23T09:09:11.020Z,101593.91
2022-11-23T09:11:38.835Z,101601.56
2022-11-23T09:14:06.792Z,101597.38
2022-11-23T09:16:36.026Z,101603.28
2022-11-23T09:19:03.913Z,101605.00
2022-11-23T09:21:33.997Z,101610.16
2022-11-23T09:24:01.796Z,101617.91
2022-11-23T09:26:31.116Z,101617.03
2022-11-23T09:28:58.946Z,101614.44
2022-11-23T09:31:29.013Z,101624.78
2022-11-23T09:33:58.302Z,101621.31
2022-11-23T09:36:26.217Z,101620.44
2022-11-23T09:38:56.966Z,101616.94
2022-11-23T09:41:45.029Z,101623.88
2022-11-23T09:44:21.095Z,101622.97
2022-11-23T09:47:01.670Z,101622.00
2022-11-23T09:49:37.349Z,101627.25
2022-11-23T09:52:15.948Z,101628.91
2022-11-23T09:54:46.407Z,101625.38
2022-11-23T09:57:20.901Z,101615.16
2022-11-23T09:59:55.082Z,101616.88
2022-11-23T10:02:24.944Z,101625.53
2022-11-23T10:04:55.044Z,101620.41
2022-11-23T10:07:44.988Z,101623.88
2022-11-23T10:10:28.311Z,101621.25
2022-11-23T10:13:05.427Z,101621.22
2022-11-23T10:15:39.205Z,101615.22
2022-11-23T10:18:23.327Z,101620.34
2022-11-23T10:21:00.598Z,101618.56
2022-11-23T10:23:51.364Z,101605.75
2022-11-23T10:26:21.181Z,101600.63
2022-11-23T10:28:50.554Z,101599.72
2022-11-23T10:31:19.908Z,101601.50
2022-11-23T10:33:57.132Z,101608.38
2022-11-23T10:36:26.527Z,101604.06
2022-11-23T10:38:59.676Z,101595.41
2022-11-23T10:41:27.800Z,101599.84
2022-11-23T10:44:03.698Z,101606.69
2022-11-23T10:46:38.417Z,101606.69
2022-11-23T10:49:19.164Z,101599.84
2022-11-23T10:51:54.615Z,101601.53
2022-11-23T10:54:27.657Z,101597.22
2022-11-23T10:56:56.578Z,101594.53
2022-11-23T10:59:33.898Z,101598.81
2022-11-23T11:02:10.448Z,101590.31
2022-11-23T11:04:38.337Z,101589.50
2022-11-23T11:07:29.715Z,101592.16
2022-11-23T11:09:59.721Z,101595.50
2022-11-23T11:12:28.980Z,101591.28
2022-11-23T11:15:10.946Z,101582.72
2022-11-23T11:17:40.016Z,101580.94
2022-11-23T11:20:31.374Z,101569.72
2022-11-23T11:23:03.837Z,101560.38
2022-11-23T11:25:34.648Z,101562.94
2022-11-23T11:28:05.534Z,101567.28
2022-11-23T11:30:44.770Z,101563.88
2022-11-23T11:33:19.214Z,101570.78
2022-11-23T11:35:51.137Z,101575.91
2022-11-23T11:38:27.552Z,101575.16
2022-11-23T11:40:57.132Z,101579.34
2022-11-23T11:43:37.802Z,101585.44
2022-11-23T11:46:28.412Z,101587.97
2022-11-23T11:49:01.416Z,101582.78
2022-11-23T11:51:34.339Z,101585.41
2022-11-23T11:54:13.259Z,101586.28
2022-11-23T11:56:44.887Z,101582.81
2022-11-23T11:59:19.143Z,101577.75
2022-11-23T12:01:56.934Z,101576.00
2022-11-23T12:04:30.378Z,101579.34
2022-11-23T12:07:06.611Z,101574.19
2022-11-23T12:09:40.396Z,101577.69
2022-11-23T12:12:15.967Z,101574.28
2022-11-23T12:14:45.071Z,101573.44
2022-11-23T12:17:33.726Z,101579.53
2022-11-23T12:20:11.902Z,101578.66
2022-11-23T12:22:53.576Z,101590.69
2022-11-23T12:25:33.225Z,101581.28
2022-11-23T12:28:16.454Z,101577.03
2022-11-23T12:30:52.822Z,101568.28
2022-11-23T12:33:37.686Z,101576.97
2022-11-23T12:36:23.778Z,101567.47
2022-11-23T12:38:56.507Z,101576.06
2022-11-23T12:41:40.623Z,101572.59
2022-11-23T12:44:31.892Z,101574.44
2022-11-23T12:47:05.137Z,101577.91
2022-11-23T12:49:41.050Z,101574.34
2022-11-23T12:52:28.457Z,101572.59
2022-11-23T12:55:07.933Z,101573.41
2022-11-23T12:57:43.418Z,101564.81
2022-11-23T13:00:17.281Z,101557.97
2022-11-23T13:03:13.853Z,101560.50
2022-11-23T13:06:20.029Z,101549.34
2022-11-23T13:09:13.437Z,101545.00
2022-11-23T13:11:55.667Z,101547.53
2022-11-23T13:14:31.565Z,101545.88
2022-11-23T13:17:17.658Z,101544.09
2022-11-23T13:20:09.058Z,101551.06
2022-11-23T13:22:39.569Z,101542.44
2022-11-23T13:25:23.948Z,101547.53
2022-11-23T13:28:03.383Z,101551.81
2022-11-23T13:30:59.244Z,101553.56
2022-11-23T13:33:31.772Z,101554.38
2022-11-23T13:36:08.734Z,101559.53
2022-11-23T13:38:41.253Z,101556.19
2022-11-23T13:41:57.777Z,101553.63
2022-11-23T13:44:31.701Z,101550.25
2022-11-23T13:47:20.221Z,101548.53
2022-11-23T13:49:50.393Z,101552.03
2022-11-23T13:52:31.782Z,101552.09
2022-11-23T13:55:21.380Z,101563.28
2022-11-23T13:58:22.463Z,101553.00
2022-11-23T14:00:52.025Z,101559.09
2022-11-23T14:03:50.776Z,101562.59
2022-11-23T14:06:38.650Z,101560.03
2022-11-23T14:09:14.901Z,101563.38
2022-11-23T14:11:55.981Z,101559.97
2022-11-23T14:14:28.928Z,101563.38
2022-11-23T14:17:22.639Z,101565.16
2022-11-23T14:20:15.330Z,101564.38
2022-11-23T14:22:55.793Z,101565.22
2022-11-23T14:25:38.877Z,101571.19
2022-11-23T14:28:19.097Z,101573.75
2022-11-23T14:30:54.928Z,101567.84
2022-11-23T14:33:34.038Z,101574.69
2022-11-23T14:36:14.444Z,101572.91
2022-11-23T14:39:03.300Z,101574.59
2022-11-23T14:41:36.278Z,101574.59
2022-11-23T14:44:04.812Z,101571.09
2022-11-23T14:46:32.824Z,101572.78
2022-11-23T14:49:06.835Z,101584.97
2022-11-23T14:51:40.728Z,101577.13
2022-11-23T14:54:11.325Z,101582.25
2022-11-23T14:56:43.903Z,101588.25
2022-11-23T14:59:22.392Z,101590.81
2022-11-23T15:01:53.074Z,101589.00
2022-11-23T15:04:26.505Z,101585.56
2022-11-23T15:07:02.379Z,101591.56
2022-11-23T15:09:42.817Z,101586.34
2022-11-23T15:12:22.543Z,101581.25
2022-11-23T15:14:51.715Z,101588.97
2022-11-23T15:17:21.818Z,101592.44
2022-11-23T15:19:57.238Z,101589.00
2022-11-23T15:22:27.117Z,101592.50
2022-11-23T15:24:55.699Z,101597.63
2022-11-23T15:27:28.710Z,101594.09
2022-11-23T15:29:58.438Z,101614.66
2022-11-23T15:32:31.867Z,101608.59
2022-11-23T15:35:03.759Z,101614.59
2022-11-23T15:37:38.199Z,101609.41
2022-11-23T15:40:08.345Z,101606.84
2022-11-23T15:42:36.032Z,101608.56
2022-11-23T15:45:03.870Z,101609.31
2022-11-23T15:47:32.242Z,101612.00
2022-11-23T15:50:02.498Z,101611.97
2022-11-23T15:52:35.148Z,101617.03
2022-11-23T15:55:09.314Z,101616.09
2022-11-23T15:57:39.164Z,101610.06
2022-11-23T16:00:09.472Z,101613.44
2022-11-23T16:02:37.967Z,101616.00
2022-11-23T16:05:13.737Z,101615.16
2022-11-23T16:07:54.726Z,101612.63
2022-11-23T16:10:24.572Z,101605.66
2022-11-23T16:12:54.187Z,101606.56
2022-11-23T16:15:38.499Z,101610.03
2022-11-23T16:18:16.861Z,101605.84
2022-11-23T16:20:45.610Z,101602.38
2022-11-23T16:23:20.316Z,101604.03
2022-11-23T16:25:55.284Z,101604.91
2022-11-23T16:28:29.074Z,101608.34
2022-11-23T16:30:57.921Z,101599.84
2022-11-23T16:33:26.304Z,101604.06
2022-11-23T16:35:54.176Z,101610.81
2022-11-23T16:38:24.306Z,101611.69
2022-11-23T16:40:52.051Z,101606.66
2022-11-23T16:43:20.246Z,101603.19
2022-11-23T16:45:50.707Z,101598.84
2022-11-23T16:48:40.711Z,101606.63
2022-11-23T16:51:14.203Z,101603.19
2022-11-23T16:54:12.374Z,101593.81
2022-11-23T16:56:35.787Z,101599.00
2022-11-23T16:59:03.950Z,101592.16
2022-11-23T17:01:33.629Z,101599.06
2022-11-23T17:04:01.699Z,101593.91
2022-11-23T17:06:29.779Z,101592.22
2022-11-23T17:09:06.212Z,101587.88
2022-11-23T17:11:38.358Z,101591.34
2022-11-23T17:14:07.491Z,101591.38
2022-11-23T17:16:35.417Z,101590.47
2022-11-23T17:19:03.398Z,101591.31
2022-11-23T17:21:31.225Z,101598.97
2022-11-23T17:24:00.411Z,101602.41
2022-11-23T17:26:35.541Z,101597.28
2022-11-23T17:29:05.751Z,101597.28
2022-11-23T17:31:33.420Z,101595.66
2022-11-23T17:34:01.255Z,101599.88
2022-11-23T17:36:31.568Z,101599.00
2022-11-23T17:39:00.845Z,101592.91
2022-11-23T17:41:30.077Z,101598.13
2022-11-23T17:43:59.372Z,101602.41
2022-11-23T17:46:31.497Z,101595.41
2022-11-23T17:49:02.507Z,101603.13
2022-11-23T17:51:30.572Z,101608.22
2022-11-23T17:53:58.398Z,101613.28
2022-11-23T17:56:27.705Z,101612.44
2022-11-23T17:58:55.789Z,101607.31
2022-11-23T18:01:24.846Z,101615.81
2022-11-23T18:03:52.888Z,101612.41
2022-11-23T18:06:23.052Z,101606.38
2022-11-23T18:08:51.514Z,101608.19
2022-11-23T18:11:20.016Z,101608.13
2022-11-23T18:13:50.558Z,101613.31
2022-11-23T18:16:19.956Z,101620.09
2022-11-23T18:18:48.178Z,101620.91
2022-11-23T18:21:16.286Z,101610.59
2022-11-23T18:23:44.511Z,101625.22
2022-11-23T18:26:20.510Z,101618.28
2022-11-23T18:28:51.100Z,101623.44
2022-11-23T18:31:19.860Z,101623.44
2022-11-23T18:33:48.272Z,101616.56
2022-11-23T18:36:16.549Z,101620.81
2022-11-23T18:38:45.910Z,101621.75
2022-11-23T18:41:16.168Z,101619.19
2022-11-23T18:43:44.149Z,101627.72
2022-11-23T18:46:19.033Z,101622.63
2022-11-23T18:48:48.906Z,101620.03
2022-11-23T18:51:17.974Z,101628.56
2022-11-23T18:53:47.670Z,101627.72
2022-11-23T18:56:15.769Z,101623.44
2022-11-23T18:58:45.326Z,101625.19
2022-11-23T19:01:17.767Z,101624.31
2022-11-23T19:03:46.965Z,101634.56
2022-11-23T19:06:16.722Z,101634.47
2022-11-23T19:08:45.940Z,101632.69
2022-11-23T19:11:17.706Z,101628.41
2022-11-23T19:13:47.065Z,101631.84
2022-11-23T19:16:17.733Z,101632.78
2022-11-23T19:18:45.685Z,101633.63
2022-11-23T19:21:15.029Z,101636.19
2022-11-23T19:23:43.484Z,101638.81
2022-11-23T19:26:11.870Z,101629.34
2022-11-23T19:28:44.513Z,101638.84
2022-11-23T19:31:14.016Z,101625.88
2022-11-23T19:33:44.159Z,101633.63
2022-11-23T19:36:14.368Z,101630.22
2022-11-23T19:38:42.013Z,101626.88
2022-11-23T19:41:10.172Z,101629.44
2022-11-23T19:43:38.293Z,101633.69
2022-11-23T19:46:07.798Z,101626.81
2022-11-23T19:48:36.065Z,101633.66
2022-11-23T19:51:07.052Z,101637.13
2022-11-23T19:53:36.938Z,101638.78
2022-11-23T19:56:07.549Z,101642.25
2022-11-23T19:58:36.033Z,101638.00
2022-11-23T20:01:05.562Z,101644.84
2022-11-23T20:03:35.977Z,101638.75
2022-11-23T20:06:07.477Z,101635.38
2022-11-23T20:08:35.513Z,101642.19
2022-11-23T20:11:07.669Z,101637.91
2022-11-23T20:13:35.846Z,101626.72
2022-11-23T20:16:07.392Z,101631.03
2022-11-23T20:18:35.913Z,101627.59
2022-11-23T20:21:05.669Z,101631.06
2022-11-23T20:23:33.516Z,101637.06
2022-11-23T20:26:01.388Z,101638.78
2022-11-23T20:28:29.581Z,101636.19
2022-11-23T20:30:57.806Z,101637.03
2022-11-23T20:33:25.743Z,101642.19
2022-11-23T20:35:53.578Z,101639.56
2022-11-23T20:38:22.753Z,101643.00
2022-11-23T20:40:50.630Z,101649.88
2022-11-23T20:43:18.606Z,101648.19
2022-11-23T20:45:46.471Z,101648.28
2022-11-23T20:48:14.453Z,101650.75
2022-11-23T20:50:42.784Z,101646.44
2022-11-23T20:53:10.632Z,101643.97
2022-11-23T20:55:39.817Z,101637.94
2022-11-23T20:58:08.147Z,101638.00
2022-11-23T21:00:35.957Z,101634.56
2022-11-23T21:03:04.220Z,101639.75
2022-11-23T21:05:32.106Z,101639.81
2022-11-23T21:08:00.126Z,101644.97
2022-11-23T21:10:45.786Z,101639.91
2022-11-23T21:13:48.656Z,101649.44
2022-11-23T21:16:17.100Z,101641.00
2022-11-23T21:18:44.973Z,101646.19
2022-11-23T21:21:12.919Z,101647.06
2022-11-23T21:23:40.750Z,101647.00
2022-11-23T21:26:08.579Z,101653.81
2022-11-23T21:28:37.906Z,101648.66
2022-11-23T21:31:08.795Z,101652.03
2022-11-23T21:33:37.318Z,101644.22
2022-11-23T21:36:06.035Z,101638.19
2022-11-23T21:38:38.542Z,101643.34
2022-11-23T21:41:08.737Z,101643.34
2022-11-23T21:43:38.745Z,101645.97
2022-11-23T21:46:08.077Z,101647.56
2022-11-23T21:48:36.546Z,101650.16
2022-11-23T21:51:06.400Z,101646.59
2022-11-23T21:53:35.266Z,101651.72
2022-11-23T21:56:04.359Z,101650.84
2022-11-23T21:58:33.396Z,101657.69
2022-11-23T22:01:07.619Z,101655.03
2022-11-23T22:03:39.729Z,101655.09
2022-11-23T22:06:08.869Z,101659.31
2022-11-23T22:08:40.720Z,101655.81
2022-11-23T22:11:12.609Z,101659.31
2022-11-23T22:13:40.838Z,101655.88
2022-11-23T22:16:19.219Z,101649.00
2022-11-23T22:18:52.622Z,101648.09
2022-11-23T22:21:24.380Z,101653.31
2022-11-23T22:23:52.538Z,101642.09
2022-11-23T22:26:21.345Z,101653.16
2022-11-23T22:28:51.714Z,101653.13
2022-11-23T22:31:23.523Z,101649.66
2022-11-23T22:33:53.227Z,101653.09
2022-11-23T22:36:22.713Z,101647.03
2022-11-23T22:39:00.826Z,101653.97
2022-11-23T22:41:29.974Z,101660.84
2022-11-23T22:43:58.166Z,101666.84
2022-11-23T22:46:27.919Z,101661.66
2022-11-23T22:48:59.475Z,101663.34
2022-11-23T22:51:29.022Z,101660.78
2022-11-23T22:53:58.037Z,101653.88
2022-11-23T22:56:26.888Z,101653.00
2022-11-23T22:58:54.919Z,101656.47
2022-11-23T23:01:24.528Z,101662.47
2022-11-23T23:03:56.219Z,101653.06
2022-11-23T23:06:26.533Z,101651.38
2022-11-23T23:08:55.666Z,101660.09
2022-11-23T23:11:24.159Z,101653.09
2022-11-23T23:13:52.583Z,101647.09
2022-11-23T23:16:20.917Z,101655.72
2022-11-23T23:18:49.584Z,101649.72
2022-11-23T23:21:21.056Z,101654.00
2022-11-23T23:23:50.252Z,101657.53
2022-11-23T23:26:20.466Z,101655.78
2022-11-23T23:28:48.410Z,101659.53
2022-11-23T23:31:18.255Z,101648.31
2022-11-23T23:33:46.775Z,101651.72
2022-11-23T23:36:16.241Z,101648.28
2022-11-23T23:38:45.571Z,101644.81
2022-11-23T23:41:14.740Z,101642.19
2022-11-23T23:43:43.272Z,101635.34
2022-11-23T23:46:12.560Z,101643.94
2022-11-23T23:48:41.241Z,101646.53
2022-11-23T23:51:12.215Z,101641.34
2022-11-23T23:53:40.794Z,101644.81
2022-11-23T23:56:14.289Z,101643.97
2022-11-23T23:58:42.520Z,101638.81
